map of FAM home
FAM - Airport
Location
City:  Farmington, Missouri, United States
Name:Farmington Regional
ICAO:KFAM
IATA:FAM
FAA LID:FAM

Details
Type:Airport (Airfield)
Use:Public/Civil
Latitude:3745'40"N (37.761028)
Longitude:9025'43"W (-90.428610)
Datum:WGS 1984
Elevation:945 ft (288 m)
Variation:1.28W (WMM2015 magnetic declination)
-0.09 annual change
Runways:1
Longest:4222 × 75 ft (1287 × 23 m), paved

Time
Time Zone:UTC-6 (DST-5)
Local Time:

Weather
METAR:KFAM 161956Z AUTO 19010KT 10SM CLR 14/M02 A3000 RMK AO2 SLP162 T01391017

Related Locations
Nearby:
Farthest:MQZ: 10990 mi / 17687 km
Margaret River [Margaret River Airport], WA, AU

Find:

   beyond  
but within

Other Information
Maps:
NOTAMs:
Links:
Sources:

  
flag of United States
flag of Missouri
  

Sectional Chart

Flight Planning
at skyvector.com

Satellite Image

Google Maps Satellite view

 

Copyright © 2004-2017 Karl L. Swartz. All rights reserved.
The Great Circle Mapper name and logo are trademarks of the Great Circle Mapper.
All other trademarks mentioned herein belong to their respective owners.
Please see credits for attibutions and further copyright information.

  Follow gcmap on Facebook Follow gcmap on Twitter Follow gcmap on Google+ GCmap on LinkedIn

hCard Microformat

Geo Microformat